Euskara    
Meteorología y climatología de Navarra
Datos de la estación - Meteo Navarra

Estación de Bera (Larrategaña) GN

Altitud 306 m.


Datos desde el 14/01/2021 hasta el 15/01/2021 en horario solar
Los datos son PROVISIONALES

Anterior Página 1 de 1 Siguiente Descargar: Formato para Excel 2000 o superior   Formato csv   Formato para OpenOffice Calc
Fecha Temperatura Humedad relativa Radiación global Insolación Precipitación Vel. viento 10 m Vel. viento 10 m Dir. viento 10 m
°C % W/m² s l/m² m/s km/h °
14/01/2021 0:00 6.1 100 0.0 0 0.0 0.6 2.0 194
14/01/2021 0:10 6.1 100 0.0 0 0.0 0.2 0.6 224
14/01/2021 0:20 6.1 100 0.0 0 0.0 0.4 1.5 230
14/01/2021 0:30 6.2 100 0.0 0 0.0 1.0 3.6 231
14/01/2021 0:40 6.1 100 0.0 0 0.0 1.0 3.6 230
14/01/2021 0:50 6.1 100 0.0 0 0.0 1.2 4.2 224
14/01/2021 1:00 6.0 100 0.0 0 0.0 1.1 4.1 242
14/01/2021 1:10 6.1 100 0.0 0 0.0 0.8 2.8 240
14/01/2021 1:20 6.0 100 0.0 0 0.0 1.0 3.5 233
14/01/2021 1:30 6.1 100 0.0 0 0.0 0.9 3.3 237
14/01/2021 1:40 6.1 100 0.0 0 0.1 0.2 0.6 245
14/01/2021 1:50 6.1 100 0.0 0 0.0 0.8 3.0 217
14/01/2021 2:00 6.1 100 0.0 0 0.0 1.2 4.2 239
14/01/2021 2:10 6.2 100 0.0 0 0.0 0.4 1.6 236
14/01/2021 2:20 6.3 100 0.0 0 0.1 0.2 0.6 245
14/01/2021 2:30 6.2 100 0.0 0 0.1 0.8 3.0 227
14/01/2021 2:40 6.2 100 0.0 0 0.0 1.0 3.6 235
14/01/2021 2:50 6.1 100 0.0 0 0.0 0.7 2.3 272
14/01/2021 3:00 6.0 100 0.0 0 0.1 0.5 1.8 39
14/01/2021 3:10 6.1 100 0.0 0 0.1 0.0 0.0 0
14/01/2021 3:20 6.3 100 0.0 0 0.0 0.7 2.4 105
14/01/2021 3:30 6.2 100 0.0 0 0.0 0.5 1.8 161
14/01/2021 3:40 6.2 100 0.0 0 0.0 0.3 1.1 256
14/01/2021 3:50 6.2 100 0.0 0 0.0 0.9 3.1 239
14/01/2021 4:00 6.0 100 0.0 0 0.1 0.9 3.3 240
14/01/2021 4:10 6.2 100 0.0 0 0.1 0.6 2.3 230
14/01/2021 4:20 6.2 100 0.0 0 0.0 0.4 1.4 198
14/01/2021 4:30 5.9 100 0.0 0 0.0 0.9 3.1 221
14/01/2021 4:40 5.9 100 0.0 0 0.0 0.7 2.6 216
14/01/2021 4:50 5.9 100 0.0 0 0.0 0.6 2.0 213
14/01/2021 5:00 6.0 100 0.0 0 0.0 0.6 2.2 192
14/01/2021 5:10 6.1 100 0.0 0 0.0 0.6 2.3 190
14/01/2021 5:20 6.1 100 0.0 0 0.0 0.9 3.1 158
14/01/2021 5:30 6.1 100 0.0 0 0.0 0.4 1.4 210
14/01/2021 5:40 6.1 100 0.0 0 0.0 0.9 3.2 179
14/01/2021 5:50 6.0 100 0.0 0 0.0 0.6 2.2 215
14/01/2021 6:00 6.0 100 0.0 0 0.0 0.7 2.7 247
14/01/2021 6:10 5.9 100 0.0 0 0.0 0.6 2.1 226
14/01/2021 6:20 5.9 100 0.0 0 0.0 0.7 2.5 223
14/01/2021 6:30 5.9 100 0.0 0 0.0 0.9 3.1 230
14/01/2021 6:40 5.9 100 0.0 0 0.0 0.5 1.7 241
14/01/2021 6:50 5.9 100 0.0 0 0.0 0.9 3.2 231
14/01/2021 7:00 5.8 100 0.0 0 0.0 0.8 2.8 232
14/01/2021 7:10 5.8 100 0.0 0 0.0 1.1 3.9 232
14/01/2021 7:20 5.7 100 0.0 0 0.0 1.1 4.1 227
14/01/2021 7:30 5.7 100 0.0 0 0.0 1.0 3.7 232
14/01/2021 7:40 5.7 100 0.0 0 0.0 1.1 3.9 244
14/01/2021 7:50 5.7 100 0.0 0 0.0 0.7 2.5 225
14/01/2021 8:00 5.7 100 0.0 0 0.0 0.8 3.0 215
14/01/2021 8:10 5.7 100 0.0 0 0.0 1.2 4.2 226
14/01/2021 8:20 5.7 100 0.0 0 0.0 0.9 3.2 217
14/01/2021 8:30 5.8 100 0.0 0 0.0 0.7 2.4 208
14/01/2021 8:40 5.7 100 0.4 0 0.0 1.0 3.7 209
14/01/2021 8:50 5.8 100 5.1 0 0.0 0.8 2.9 221
14/01/2021 9:00 5.8 100 19.3 0 0.0 0.9 3.1 236
14/01/2021 9:10 5.8 100 26.5 0 0.0 0.9 3.2 202
14/01/2021 9:20 5.9 99 32.2 0 0.0 0.7 2.5 220
14/01/2021 9:30 5.9 99 35.3 0 0.0 0.8 2.8 212
14/01/2021 9:40 6.1 98 44.4 0 0.0 0.9 3.1 221
14/01/2021 9:50 6.3 97 44.8 0 0.0 1.0 3.4 223
14/01/2021 10:00 6.4 96 41.6 0 0.0 0.7 2.7 220
14/01/2021 10:10 6.5 95 47.3 0 0.0 0.7 2.6 215
14/01/2021 10:20 6.7 95 67.7 0 0.0 1.3 4.6 204
14/01/2021 10:30 6.7 94 73.3 0 0.0 0.9 3.3 206
14/01/2021 10:40 6.8 93 67.4 0 0.0 1.2 4.4 212
14/01/2021 10:50 6.9 93 65.6 0 0.0 1.4 5.0 220
14/01/2021 11:00 6.9 94 84.9 0 0.0 1.3 4.8 219
14/01/2021 11:10 7.0 93 89.1 0 0.0 1.3 4.8 215
14/01/2021 11:20 7.2 92 81.7 0 0.0 1.2 4.3 211
14/01/2021 11:30 7.2 91 82.1 0 0.0 1.1 3.9 208
14/01/2021 11:40 7.3 91 100.6 0 0.0 1.3 4.8 217
14/01/2021 11:50 7.4 91 127.9 0 0.0 1.1 4.0 220
14/01/2021 12:00 7.4 90 102.7 0 0.0 0.7 2.6 209
14/01/2021 12:10 7.5 89 88.3 0 0.0 1.0 3.7 211
14/01/2021 12:20 7.5 89 95.8 0 0.0 1.4 4.9 221
14/01/2021 12:30 7.6 87 139.2 0 0.0 1.1 4.0 215
14/01/2021 12:40 7.7 87 218.9 186 0.0 1.1 3.9 230
14/01/2021 12:50 8.1 83 183.1 0 0.0 1.3 4.7 219
14/01/2021 13:00 8.2 83 154.5 0 0.0 1.0 3.5 225
14/01/2021 13:10 8.2 84 111.5 0 0.0 0.8 2.8 228
14/01/2021 13:20 8.2 82 97.7 0 0.0 1.7 6.2 291
14/01/2021 13:30 8.3 81 77.9 0 0.0 1.0 3.5 298
14/01/2021 13:40 8.3 82 121.0 0 0.0 1.7 6.1 305
14/01/2021 13:50 8.3 81 81.8 0 0.0 1.8 6.4 298
14/01/2021 14:00 8.2 80 49.3 0 0.0 2.0 7.2 258
14/01/2021 14:10 8.1 81 45.4 0 0.0 1.2 4.4 276
14/01/2021 14:20 8.1 82 48.3 0 0.0 0.9 3.3 276
14/01/2021 14:30 7.9 82 45.3 0 0.0 1.2 4.2 274
14/01/2021 14:40 7.8 83 63.1 0 0.0 0.9 3.2 261
14/01/2021 14:50 7.7 83 55.2 0 0.0 1.1 4.1 207
14/01/2021 15:00 7.7 83 29.2 0 0.0 1.9 6.9 259
14/01/2021 15:10 7.7 82 20.1 0 0.0 1.5 5.5 257
14/01/2021 15:20 7.5 85 17.6 0 0.0 2.1 7.6 263
14/01/2021 15:30 7.1 89 6.0 0 0.0 1.4 5.0 261
14/01/2021 15:40 6.8 92 0.0 0 0.0 1.0 3.5 219
14/01/2021 15:50 6.7 95 0.0 0 0.0 0.5 1.7 155
14/01/2021 16:00 6.7 96 0.0 0 0.0 1.0 3.6 137
14/01/2021 16:10 6.6 96 0.0 0 0.1 0.7 2.5 149
14/01/2021 16:20 6.5 97 0.0 0 0.0 1.2 4.2 145
14/01/2021 16:30 6.4 97 0.0 0 0.0 1.0 3.6 166
14/01/2021 16:40 6.4 97 0.0 0 0.0 1.4 5.1 172
14/01/2021 16:50 6.4 97 0.0 0 0.0 1.4 5.1 182
14/01/2021 17:00 6.4 96 0.0 0 0.0 1.3 4.8 197
14/01/2021 17:10 6.5 95 0.0 0 0.1 1.4 5.0 203
14/01/2021 17:20 6.6 96 0.0 0 0.1 1.0 3.6 214
14/01/2021 17:30 6.5 96 0.0 0 0.0 0.9 3.3 181
14/01/2021 17:40 6.5 97 0.0 0 0.0 1.1 3.8 199
14/01/2021 17:50 6.7 97 0.0 0 0.0 1.1 4.0 205
14/01/2021 18:00 6.9 97 0.0 0 0.0 1.1 3.9 239
14/01/2021 18:10 7.0 97 0.0 0 0.0 1.0 3.5 198
14/01/2021 18:20 7.0 97 0.0 0 0.0 0.9 3.1 212
14/01/2021 18:30 7.0 98 0.0 0 0.1 1.3 4.5 207
14/01/2021 18:40 7.3 98 0.0 0 0.1 1.3 4.7 243
14/01/2021 18:50 7.4 98 0.0 0 0.0 1.6 5.6 236
14/01/2021 19:00 7.8 98 0.0 0 0.1 3.4 12.1 261
14/01/2021 19:10 8.1 97 0.0 0 0.2 2.0 7.2 281
14/01/2021 19:20 8.1 97 0.0 0 0.1 1.5 5.3 259
14/01/2021 19:30 8.4 97 0.0 0 0.1 1.5 5.5 263
14/01/2021 19:40 8.7 96 0.0 0 0.1 3.6 12.9 282
14/01/2021 19:50 8.9 96 0.0 0 0.4 2.3 8.1 331
14/01/2021 20:00 8.8 97 0.0 0 0.0 3.4 12.3 351
14/01/2021 20:10 8.7 97 0.0 0 0.1 4.5 16.1 340
14/01/2021 20:20 8.7 97 0.0 0 0.0 4.0 14.3 340
14/01/2021 20:30 8.6 97 0.0 0 0.1 3.0 10.9 340
14/01/2021 20:40 8.6 96 0.0 0 0.0 3.2 11.5 354
14/01/2021 20:50 8.6 95 0.0 0 0.1 2.7 9.8 333
14/01/2021 21:00 8.6 93 0.0 0 0.0 4.0 14.4 349
14/01/2021 21:10 8.6 93 0.0 0 0.0 3.3 11.8 3
14/01/2021 21:20 8.5 94 0.0 0 0.0 2.4 8.7 1
14/01/2021 21:30 8.5 93 0.0 0 0.0 3.2 11.5 2
14/01/2021 21:40 8.5 92 0.0 0 0.0 2.6 9.2 2
14/01/2021 21:50 8.5 91 0.0 0 0.0 2.1 7.7 343
14/01/2021 22:00 8.5 90 0.0 0 0.0 1.4 5.0 284
14/01/2021 22:10 8.4 90 0.0 0 0.0 1.1 4.1 295
14/01/2021 22:20 8.4 90 0.0 0 0.0 1.4 5.1 307
14/01/2021 22:30 8.5 90 0.0 0 0.0 1.3 4.5 316
14/01/2021 22:40 8.5 90 0.0 0 0.0 1.6 5.9 314
14/01/2021 22:50 8.4 89 0.0 0 0.0 0.8 2.9 210
14/01/2021 23:00 8.3 89 0.0 0 0.0 0.8 2.9 305
14/01/2021 23:10 8.5 88 0.0 0 0.0 1.4 5.0 285
14/01/2021 23:20 8.5 88 0.0 0 0.0 0.8 3.0 227
14/01/2021 23:30 8.4 88 0.0 0 0.0 0.9 3.1 247
14/01/2021 23:40 8.4 88 0.0 0 0.0 1.2 4.2 280
14/01/2021 23:50 8.3 87 0.0 0 0.0 1.9 6.8 299
Anterior Página 1 de 1 Siguiente

NOTA: Tipo de datos según el color:
   - Valores diarios o 10 minutos correctos
   - Valores diarios calculados a partir de un número de datos 10 minutos menor que 144 y mayor que 120, o de un número de datos semihorarios menor que 48 y mayor que 40 (caso de las estaciones de INTIA Y Ministerio)
   - Valores diez minutos estimados


Contacto        Enlaces        Aviso legal